Météo Nord-Pas-de-Calais   La météo au plus près de chez vous

Station météorologique

Observations météo à Cognac (16089)

16089001 30 m Dernier relevé à 19:12
30°C
Humidité 43 % Vent 11.9 km/h 1021.6 hPa

Journée consultée

Samedi 5 Septembre 2026

Synthèse de la journée

Périodes de référence en UTC

Température maximale

30.7°C

à 19:00

06h 06h

Température minimale

17°C

à 05:48

18h 18h

Rafale maximale

25 km/h

à 18:42

00h 00h

Précipitations

0 mm

Cumul quotidien

06h 06h

Ensoleillement

9h 31 mins

Durée quotidienne

00h 00h

Graphiques de la journée

Heure locale Réduire

Données détaillées

Relevés météo

Pas de 6 minutes Afficher les relevés infra-horaires
Relevés météo détaillés à Cognac pour le Samedi 5 Septembre 2026
Heure Température °C Point de rosée °C Humidité % Vent moyen (raf.), km/h Précipitations mm Température à 10 cm °C Température à 20 cm °C Température à 50 cm °C Température à 100 cm °C Visibilité m Ensoleillement min Rayonnement global W/m² Pression hPa Nébulosité Octas
19:12 30 °C 15.7 °C 42 % 12 km/h (18 km/h) 0 mm0 mm 22.8 °C 22.1 °C 21.7 °C 21 °C 57280 m 6 min 56.7 W/m² 1021.5 hPa
19:06 30.1 °C 15.8 °C 42 % 11 km/h (18 km/h) 0 mm0 mm 22.8 °C 22.1 °C 21.7 °C 21 °C 60000 m 6 min 64.1 W/m² 1021.5 hPa
19:00 30.1 °C 16.1 °C 43 % 12 km/h (17 km/h) 0 mm0 mm 22.8 °C 22 °C 21.7 °C 20.9 °C 60000 m 6 min 72 W/m² 1021.4 hPa
18:54 30.1 °C 16.1 °C 43 % 14 km/h (22 km/h) 0 mm0 mm 22.8 °C 22.1 °C 21.7 °C 21 °C 60000 m 6 min 79.2 W/m² 1021.4 hPa
18:48 30.3 °C 16 °C 42 % 14 km/h (22 km/h) 0 mm0 mm 22.7 °C 22 °C 21.7 °C 21 °C 60000 m 6 min 85.1 W/m² 1021.3 hPa
18:42 30.1 °C 15.8 °C 42 % 13 km/h (25 km/h) 0 mm0 mm 22.7 °C 22 °C 21.7 °C 21 °C 60000 m 6 min 91.3 W/m² 1021.3 hPa
18:36 30.2 °C 15.9 °C 42 % 14 km/h (18 km/h) 0 mm0 mm 22.7 °C 22 °C 21.7 °C 21 °C 60000 m 6 min 97.7 W/m² 1021.3 hPa
18:30 30.1 °C 15.4 °C 41 % 13 km/h (18 km/h) 0 mm0 mm 22.7 °C 22 °C 21.7 °C 21 °C 60000 m 6 min 103.5 W/m² 1021.4 hPa
18:24 30.3 °C 16.3 °C 43 % 15 km/h (24 km/h) 0 mm0 mm 22.6 °C 22 °C 21.7 °C 21 °C 60000 m 6 min 110.2 W/m² 1021.5 hPa
18:18 30.3 °C 16.3 °C 43 % 14 km/h (24 km/h) 0 mm0 mm 22.7 °C 22 °C 21.7 °C 20.9 °C 60000 m 6 min 116.3 W/m² 1021.5 hPa
18:12 30.5 °C 16.5 °C 43 % 12 km/h (23 km/h) 0 mm0 mm 22.6 °C 22 °C 21.7 °C 21 °C 60000 m 6 min 122.6 W/m² 1021.6 hPa
18:06 30.3 °C 16.3 °C 43 % 11 km/h (23 km/h) 0 mm0 mm 22.6 °C 22 °C 21.7 °C 21 °C 60000 m 6 min 129.3 W/m² 1021.6 hPa
18:00 30.5 °C 16.9 °C 44 % 12 km/h (20 km/h) 0 mm0 mm 22.6 °C 22 °C 21.7 °C 21 °C 60000 m 6 min 134.8 W/m² 1021.7 hPa
17:54 30.1 °C 16.1 °C 43 % 10 km/h (20 km/h) 0 mm0 mm 22.5 °C 22 °C 21.7 °C 21 °C 60000 m 6 min 141.2 W/m² 1021.8 hPa
17:48 30.2 °C 16.2 °C 43 % 9 km/h (17 km/h) 0 mm0 mm 22.5 °C 22 °C 21.7 °C 21 °C 60000 m 6 min 147.2 W/m² 1021.9 hPa
17:42 30.3 °C 16.3 °C 43 % 11 km/h (19 km/h) 0 mm0 mm 22.5 °C 22 °C 21.7 °C 21 °C 60000 m 6 min 153 W/m² 1022 hPa
17:36 30.5 °C 17.2 °C 45 % 9 km/h (17 km/h) 0 mm0 mm 22.5 °C 22 °C 21.7 °C 21 °C 60000 m 6 min 159 W/m² 1022.1 hPa
17:30 30.3 °C 16.7 °C 44 % 11 km/h (18 km/h) 0 mm0 mm 22.5 °C 21.9 °C 21.7 °C 20.9 °C 60000 m 6 min 164.8 W/m² 1022 hPa
17:24 30.1 °C 16.9 °C 45 % 11 km/h (19 km/h) 0 mm0 mm 22.5 °C 21.9 °C 21.7 °C 21 °C 59980 m 6 min 170.1 W/m² 1022.1 hPa
17:18 30.3 °C 16.7 °C 44 % 7 km/h (13 km/h) 0 mm0 mm 22.4 °C 21.9 °C 21.7 °C 21 °C 59980 m 6 min 175.2 W/m² 1022.1 hPa
17:12 30.4 °C 16.8 °C 44 % 7 km/h (19 km/h) 0 mm0 mm 22.4 °C 21.9 °C 21.7 °C 21 °C 59020 m 6 min 180.7 W/m² 1022.2 hPa
17:06 30.2 °C 17 °C 45 % 11 km/h (19 km/h) 0 mm0 mm 22.4 °C 21.9 °C 21.7 °C 21 °C 60000 m 6 min 186.3 W/m² 1022.3 hPa
17:00 30.4 °C 17.1 °C 45 % 11 km/h (17 km/h) 0 mm0 mm 22.4 °C 21.9 °C 21.7 °C 20.9 °C 60000 m 6 min 191.5 W/m² 1022.3 hPa
16:54 30.1 °C 16.9 °C 45 % 11 km/h (19 km/h) 0 mm0 mm 22.3 °C 21.9 °C 21.7 °C 21 °C 60000 m 6 min 197.1 W/m² 1022.4 hPa
16:48 30 °C 16.8 °C 45 % 8 km/h (15 km/h) 0 mm0 mm 22.3 °C 21.7 °C 21.5 °C 20.7 °C 60000 m 6 min 201.8 W/m² 1022.5 hPa
16:42 29.8 °C 16.9 °C 46 % 9 km/h (17 km/h) 0 mm0 mm 22.3 °C 21.9 °C 21.7 °C 21 °C 60000 m 6 min 207 W/m² 1022.5 hPa
16:36 29.8 °C 16.9 °C 46 % 10 km/h (17 km/h) 0 mm0 mm 22.3 °C 21.9 °C 21.7 °C 21 °C 60000 m 6 min 211.3 W/m² 1022.6 hPa
16:30 30.1 °C 16.9 °C 45 % 8 km/h (17 km/h) 0 mm0 mm 22.3 °C 21.9 °C 21.7 °C 21 °C 60000 m 6 min 215.7 W/m² 1022.7 hPa
16:24 30.1 °C 16.9 °C 45 % 5 km/h (13 km/h) 0 mm0 mm 22.2 °C 21.9 °C 21.7 °C 20.9 °C 60000 m 6 min 219.7 W/m² 1022.7 hPa
16:18 29.7 °C 17.5 °C 48 % 8 km/h (15 km/h) 0 mm0 mm 22.2 °C 21.9 °C 21.7 °C 21 °C 59990 m 6 min 224.2 W/m² 1022.8 hPa
16:12 29.7 °C 17.2 °C 47 % 11 km/h (18 km/h) 0 mm0 mm 22.2 °C 21.9 °C 21.7 °C 21 °C 57430 m 6 min 228 W/m² 1022.8 hPa
16:06 29.7 °C 17.2 °C 47 % 12 km/h (19 km/h) 0 mm0 mm 22.2 °C 21.9 °C 21.7 °C 21 °C 56270 m 6 min 232.3 W/m² 1022.8 hPa
16:00 29.6 °C 17.1 °C 47 % 12 km/h (19 km/h) 0 mm0 mm 22.1 °C 21.9 °C 21.7 °C 21 °C 58800 m 6 min 235.6 W/m² 1022.8 hPa
15:54 30.1 °C 17.9 °C 48 % 8 km/h (19 km/h) 0 mm0 mm 22.1 °C 21.9 °C 21.7 °C 20.9 °C 60000 m 6 min 241.1 W/m² 1022.8 hPa
15:48 29.9 °C 18 °C 49 % 9 km/h (17 km/h) 0 mm0 mm 22.1 °C 21.9 °C 21.7 °C 20.9 °C 60000 m 6 min 242.8 W/m² 1023 hPa
15:42 29.7 °C 17.8 °C 49 % 10 km/h (17 km/h) 0 mm0 mm 22.1 °C 21.9 °C 21.7 °C 20.9 °C 60000 m 6 min 239.1 W/m² 1023 hPa
15:36 29.7 °C 17.5 °C 48 % 9 km/h (17 km/h) 0 mm0 mm 22.1 °C 22.2 °C 22 °C 21.3 °C 60000 m 6 min 237 W/m² 1023.1 hPa
15:30 29.1 °C 17.3 °C 49 % 8 km/h (14 km/h) 0 mm0 mm 22.1 °C 21.9 °C 21.7 °C 20.9 °C 60000 m 6 min 247.4 W/m² 1023.3 hPa
15:24 29.6 °C 17.8 °C 49 % 9 km/h (20 km/h) 0 mm0 mm 22.1 °C 21.9 °C 21.7 °C 21 °C 57280 m 6 min 261.9 W/m² 1023.4 hPa
15:18 29.1 °C 17.6 °C 50 % 10 km/h (20 km/h) 0 mm0 mm 22.1 °C 21.9 °C 21.7 °C 20.9 °C 60000 m 6 min 260.9 W/m² 1023.4 hPa
15:12 28.9 °C 18.1 °C 52 % 6 km/h (14 km/h) 0 mm0 mm 22 °C 21.9 °C 21.7 °C 21 °C 60000 m 6 min 263.9 W/m² 1023.6 hPa
15:06 28.8 °C 18 °C 52 % 9 km/h (16 km/h) 0 mm0 mm 22 °C 21.9 °C 21.7 °C 20.9 °C 60000 m 6 min 266 W/m² 1023.6 hPa
15:00 29 °C 17.8 °C 51 % 6 km/h (16 km/h) 0 mm0 mm 22 °C 21.9 °C 21.7 °C 20.9 °C 60000 m 6 min 268.5 W/m² 1023.7 hPa
14:54 29.1 °C 18.2 °C 52 % 5 km/h (14 km/h) 0 mm0 mm 22 °C 21.9 °C 21.7 °C 21 °C 60000 m 6 min 270.4 W/m² 1023.7 hPa
14:48 28.4 °C 17.9 °C 53 % 7 km/h (14 km/h) 0 mm0 mm 22 °C 21.9 °C 21.7 °C 20.9 °C 60000 m 6 min 272.4 W/m² 1023.8 hPa
14:42 28.3 °C 18.1 °C 54 % 10 km/h (20 km/h) 0 mm0 mm 22 °C 21.9 °C 21.7 °C 20.9 °C 60000 m 6 min 273.4 W/m² 1023.8 hPa
14:36 28.4 °C 17.9 °C 53 % 12 km/h (20 km/h) 0 mm0 mm 22 °C 21.9 °C 21.7 °C 20.9 °C 60000 m 6 min 273.8 W/m² 1023.9 hPa
14:30 28.1 °C 17.9 °C 54 % 8 km/h (20 km/h) 0 mm0 mm 22 °C 21.9 °C 21.7 °C 21 °C 60000 m 6 min 274.9 W/m² 1023.8 hPa
14:24 28.3 °C 18.4 °C 55 % 10 km/h (18 km/h) 0 mm0 mm 21.9 °C 21.9 °C 21.7 °C 21 °C 60000 m 6 min 276.7 W/m² 1023.9 hPa
14:18 28.1 °C 18.2 °C 55 % 8 km/h (18 km/h) 0 mm0 mm 22 °C 21.9 °C 21.7 °C 21 °C 59580 m 6 min 277.8 W/m² 1023.9 hPa
14:12 27.8 °C 17.9 °C 55 % 6 km/h (15 km/h) 0 mm0 mm 21.9 °C 21.9 °C 21.7 °C 21 °C 58380 m 6 min 277.8 W/m² 1024 hPa
14:06 27.9 °C 18 °C 55 % 8 km/h (18 km/h) 0 mm0 mm 21.9 °C 21.9 °C 21.7 °C 20.9 °C 58660 m 6 min 278.3 W/m² 1024 hPa
14:00 27.8 °C 18.2 °C 56 % 9 km/h (18 km/h) 0 mm0 mm 21.9 °C 22 °C 21.7 °C 21 °C 60000 m 6 min 278 W/m² 1024.1 hPa
13:54 27.4 °C 17.8 °C 56 % 6 km/h (13 km/h) 0 mm0 mm 21.9 °C 21.9 °C 21.7 °C 21 °C 60000 m 6 min 277.2 W/m² 1024.2 hPa
13:48 27.5 °C 17.9 °C 56 % 5 km/h (13 km/h) 0 mm0 mm 21.9 °C 21.9 °C 21.7 °C 21 °C 60000 m 6 min 276.7 W/m² 1024.3 hPa
13:42 27.4 °C 18.1 °C 57 % 5 km/h (11 km/h) 0 mm0 mm 21.9 °C 21.9 °C 21.7 °C 21 °C 60000 m 6 min 276.9 W/m² 1024.4 hPa
13:36 27.5 °C 18.2 °C 57 % 8 km/h (14 km/h) 0 mm0 mm 21.9 °C 21.9 °C 21.7 °C 20.9 °C 60000 m 6 min 276.2 W/m² 1024.5 hPa
13:30 27.7 °C 18.7 °C 58 % 8 km/h (14 km/h) 0 mm0 mm 21.9 °C 21.9 °C 21.7 °C 20.9 °C 60000 m 6 min 274.8 W/m² 1024.5 hPa
13:24 27.2 °C 18.2 °C 58 % 7 km/h (14 km/h) 0 mm0 mm 21.9 °C 21.9 °C 21.7 °C 20.9 °C 60000 m 6 min 273.4 W/m² 1024.5 hPa
13:18 27.1 °C 18.4 °C 59 % 5 km/h (13 km/h) 0 mm0 mm 21.9 °C 21.9 °C 21.7 °C 20.9 °C 60000 m 6 min 270.5 W/m² 1024.5 hPa
13:12 26.6 °C 18.2 °C 60 % 5 km/h (13 km/h) 0 mm0 mm 21.9 °C 21.9 °C 21.7 °C 20.9 °C 60000 m 6 min 268.2 W/m² 1024.6 hPa
13:06 26.7 °C 18.3 °C 60 % 8 km/h (13 km/h) 0 mm0 mm 21.9 °C 22 °C 21.7 °C 21 °C 60000 m 6 min 267.5 W/m² 1024.6 hPa
13:00 26.8 °C 18.4 °C 60 % 8 km/h (13 km/h) 0 mm0 mm 21.9 °C 22 °C 21.8 °C 21 °C 60000 m 6 min 280.8 W/m² 1024.6 hPa
12:54 26.7 °C 18 °C 59 % 6 km/h (13 km/h) 0 mm0 mm 21.9 °C 22 °C 21.7 °C 20.9 °C 60000 m 3 min 222.7 W/m² 1024.7 hPa
12:48 26.4 °C 18.3 °C 61 % 5 km/h (11 km/h) 0 mm0 mm 22 °C 22 °C 21.7 °C 21 °C 60000 m 5 min 265.1 W/m² 1024.8 hPa
12:42 26.5 °C 18.6 °C 62 % 3 km/h (6 km/h) 0 mm0 mm 21.9 °C 22 °C 21.7 °C 21 °C 60000 m 6 min 286.5 W/m² 1024.8 hPa
12:36 25.9 °C 18.1 °C 62 % 4 km/h (10 km/h) 0 mm0 mm 21.9 °C 22 °C 21.7 °C 21 °C 60000 m 6 min 256.8 W/m² 1024.9 hPa
12:30 25.9 °C 18.6 °C 64 % 6 km/h (10 km/h) 0 mm0 mm 22 °C 22 °C 21.7 °C 21 °C 60000 m 6 min 279.3 W/m² 1024.9 hPa
12:24 25.5 °C 18.2 °C 64 % 6 km/h (12 km/h) 0 mm0 mm 21.9 °C 22 °C 21.7 °C 21 °C 55950 m 6 min 268.9 W/m² 1024.8 hPa
12:18 25.5 °C 18.2 °C 64 % 8 km/h (13 km/h) 0 mm0 mm 21.9 °C 22 °C 21.7 °C 21 °C 59790 m 6 min 264.6 W/m² 1024.8 hPa
12:12 25.6 °C 18.5 °C 65 % 9 km/h (17 km/h) 0 mm0 mm 21.9 °C 22 °C 21.7 °C 21 °C 60000 m 6 min 260.6 W/m² 1024.8 hPa
12:06 25.2 °C 18.6 °C 67 % 7 km/h (17 km/h) 0 mm0 mm 22 °C 22 °C 21.7 °C 21 °C 60000 m 3 min 168.8 W/m² 1024.9 hPa
12:00 24.7 °C 18.2 °C 67 % 5 km/h (10 km/h) 0 mm0 mm 21.9 °C 22 °C 21.7 °C 21 °C 60000 m 3 min 170.1 W/m² 1025 hPa
11:54 24.7 °C 18.2 °C 67 % 6 km/h (12 km/h) 0 mm0 mm 22 °C 22 °C 21.7 °C 21 °C 60000 m 4 min 198.1 W/m² 1025.1 hPa
11:48 25.1 °C 18.8 °C 68 % 8 km/h (18 km/h) 0 mm0 mm 22 °C 22 °C 21.7 °C 21 °C 60000 m 6 min 249.4 W/m² 1025 hPa
11:42 24.5 °C 18.2 °C 68 % 9 km/h (18 km/h) 0 mm0 mm 22 °C 22 °C 21.7 °C 20.9 °C 60000 m 6 min 232.5 W/m² 1024.9 hPa
11:36 24 °C 18.4 °C 71 % 8 km/h (15 km/h) 0 mm0 mm 22 °C 22 °C 21.7 °C 21 °C 59250 m 6 min 223 W/m² 1025 hPa
11:30 23.9 °C 18.3 °C 71 % 6 km/h (13 km/h) 0 mm0 mm 22 °C 22.1 °C 21.7 °C 21 °C 59250 m 6 min 215.4 W/m² 1024.9 hPa
11:24 23.7 °C 18.3 °C 72 % 8 km/h (13 km/h) 0 mm0 mm 22 °C 22.1 °C 21.7 °C 21 °C 60000 m 6 min 211.6 W/m² 1025 hPa
11:18 23.5 °C 18.4 °C 73 % 9 km/h (13 km/h) 0 mm0 mm 22 °C 22 °C 21.7 °C 20.9 °C 60000 m 6 min 204.5 W/m² 1025 hPa
11:12 23.2 °C 18.5 °C 75 % 9 km/h (14 km/h) 0 mm0 mm 22 °C 22 °C 21.7 °C 20.9 °C 59990 m 6 min 194.9 W/m² 1024.9 hPa
11:06 22.7 °C 18.2 °C 76 % 9 km/h (14 km/h) 0 mm0 mm 22 °C 22 °C 21.7 °C 20.9 °C 59810 m 6 min 189.7 W/m² 1024.9 hPa
11:00 22.6 °C 18.2 °C 76 % 9 km/h (13 km/h) 0 mm0 mm 22.1 °C 22.1 °C 21.7 °C 21 °C 53630 m 6 min 191.1 W/m² 1024.9 hPa
10:54 22.4 °C 18.2 °C 77 % 9 km/h (13 km/h) 0 mm0 mm 22 °C 22.1 °C 21.8 °C 21 °C 49300 m 6 min 186.5 W/m² 1024.8 hPa
10:48 22.2 °C 18.4 °C 79 % 10 km/h (16 km/h) 0 mm0 mm 22 °C 22.1 °C 21.7 °C 21 °C 46110 m 6 min 182.3 W/m² 1024.8 hPa
10:42 21.6 °C 18.2 °C 81 % 9 km/h (16 km/h) 0 mm0 mm 22.1 °C 22.1 °C 21.7 °C 21 °C 45860 m 6 min 173.7 W/m² 1024.8 hPa
10:36 21.2 °C 17.8 °C 81 % 6 km/h (13 km/h) 0 mm0 mm 22.1 °C 22.1 °C 21.7 °C 21 °C 42780 m 5 min 154.2 W/m² 1024.8 hPa
10:30 21.3 °C 17.9 °C 81 % 5 km/h (11 km/h) 0 mm0 mm 22.1 °C 22.1 °C 21.7 °C 21 °C 48020 m 6 min 156.4 W/m² 1024.8 hPa
10:24 21.1 °C 18.1 °C 83 % 6 km/h (12 km/h) 0 mm0 mm 22.1 °C 22.1 °C 21.7 °C 21 °C 44950 m 6 min 144.3 W/m² 1024.7 hPa
10:18 20.9 °C 18.3 °C 85 % 7 km/h (12 km/h) 0 mm0 mm 22.1 °C 22 °C 21.7 °C 20.9 °C 33060 m 6 min 127.1 W/m² 1024.8 hPa
10:12 20.5 °C 17.9 °C 85 % 10 km/h (15 km/h) 0 mm0 mm 22.1 °C 22.1 °C 21.7 °C 21 °C 29600 m 6 min 125.7 W/m² 1024.8 hPa
10:06 20.5 °C 18.1 °C 86 % 11 km/h (15 km/h) 0 mm0 mm 22.1 °C 22.1 °C 21.7 °C 21 °C 28810 m 6 min 132.7 W/m² 1024.6 hPa
10:00 20.2 °C 18.1 °C 88 % 9 km/h (15 km/h) 0 mm0 mm 22.1 °C 22.1 °C 21.7 °C 21 °C 19900 m 6 min 128.6 W/m² 1024.7 hPa 6 Octas
09:54 19.7 °C 18 °C 90 % 10 km/h (13 km/h) 0 mm0 mm 22.1 °C 22.1 °C 21.8 °C 21 °C 19720 m 4 min 101.4 W/m² 1024.7 hPa
09:48 19.6 °C 17.9 °C 90 % 12 km/h (16 km/h) 0 mm0 mm 22.2 °C 22.1 °C 21.7 °C 21 °C 19720 m 5 min 96.9 W/m² 1024.8 hPa
09:42 19.5 °C 17.8 °C 90 % 13 km/h (18 km/h) 0 mm0 mm 22.1 °C 22.1 °C 21.7 °C 21 °C 19580 m 3 min 83.8 W/m² 1024.6 hPa
09:36 19.5 °C 18 °C 91 % 12 km/h (17 km/h) 0 mm0 mm 22.2 °C 22.1 °C 21.7 °C 21 °C 19600 m 4 min 83.9 W/m² 1024.5 hPa
09:30 19.4 °C 17.7 °C 90 % 12 km/h (18 km/h) 0 mm0 mm 22.2 °C 22.1 °C 21.7 °C 21 °C 19910 m 0 min 51.4 W/m² 1024.8 hPa
09:24 19.7 °C 18 °C 90 % 12 km/h (18 km/h) 0 mm0 mm 22.2 °C 22.1 °C 21.7 °C 21 °C 19980 m 0 min 49.6 W/m² 1024.8 hPa
09:18 19.9 °C 18.4 °C 91 % 12 km/h (18 km/h) 0 mm0 mm 22.2 °C 22.1 °C 21.7 °C 21 °C 19980 m 6 min 72.3 W/m² 1024.6 hPa
09:12 19.7 °C 18.4 °C 92 % 11 km/h (17 km/h) 0 mm0 mm 22.2 °C 22.1 °C 21.7 °C 21 °C 22610 m 4 min 58.1 W/m² 1024.5 hPa
09:06 19.5 °C 18.3 °C 93 % 10 km/h (14 km/h) 0 mm0 mm 22.2 °C 22.1 °C 21.7 °C 21 °C 19920 m 0 min 51 W/m² 1024.3 hPa
09:00 19.3 °C 18.1 °C 93 % 10 km/h (15 km/h) 0 mm0 mm 22.2 °C 22.2 °C 21.8 °C 21 °C 19370 m 0 min 44 W/m² 1024.3 hPa 8 Octas
08:54 19.3 °C 18.3 °C 94 % 10 km/h (14 km/h) 0 mm0 mm 22.2 °C 22.1 °C 21.7 °C 21 °C 18730 m 0 min 39.2 W/m² 1024.4 hPa
08:48 19.1 °C 18.3 °C 95 % 10 km/h (15 km/h) 0 mm0 mm 22.2 °C 22.1 °C 21.7 °C 21 °C 17870 m 0 min 30.4 W/m² 1024.3 hPa
08:42 19 °C 18.3 °C 96 % 9 km/h (15 km/h) 0 mm0 mm 22.2 °C 22.1 °C 21.7 °C 21 °C 15840 m 0 min 28.4 W/m² 1024.2 hPa
08:36 18.8 °C 18.1 °C 96 % 9 km/h (14 km/h) 0 mm0 mm 22.2 °C 22.2 °C 21.7 °C 21 °C 14710 m 0 min 19.2 W/m² 1024.2 hPa
08:30 18.8 °C 18.3 °C 97 % 10 km/h (15 km/h) 0 mm0 mm 22.3 °C 22.1 °C 21.7 °C 21 °C 14090 m 0 min 18.1 W/m² 1024.2 hPa
08:24 18.7 °C 18.2 °C 97 % 10 km/h (13 km/h) 0 mm0 mm 22.3 °C 22.2 °C 21.7 °C 21 °C 14080 m 0 min 14.8 W/m² 1024.4 hPa
08:18 18.7 °C 18.4 °C 98 % 10 km/h (14 km/h) 0 mm0 mm 22.3 °C 22.2 °C 21.7 °C 21 °C 12160 m 0 min 4.9 W/m² 1024.4 hPa
08:12 18.6 °C 18.3 °C 98 % 11 km/h (14 km/h) 0 mm0 mm 22.3 °C 22.2 °C 21.7 °C 21 °C 12010 m 0 min 0 W/m² 1024.3 hPa
08:06 18.6 °C 18.3 °C 98 % 9 km/h (14 km/h) 0 mm0 mm 22.3 °C 22.2 °C 21.7 °C 21 °C 11720 m 0 min 1.3 W/m² 1024.3 hPa
08:00 18.5 °C 18.2 °C 98 % 8 km/h (11 km/h) 0 mm0 mm 22.3 °C 22.2 °C 21.7 °C 21 °C 10500 m 0 min 0 W/m² 1024.3 hPa 8 Octas
07:54 18.4 °C 18.1 °C 98 % 9 km/h (14 km/h) 0 mm0 mm 22.3 °C 22.2 °C 21.7 °C 21 °C 9350 m 0 min 0 W/m² 1024.2 hPa
07:48 18.4 °C 18.1 °C 98 % 9 km/h (14 km/h) 0 mm0 mm 22.3 °C 22.2 °C 21.7 °C 21 °C 8120 m 0 min 0 W/m² 1024.1 hPa
07:42 18.4 °C 18.1 °C 98 % 10 km/h (15 km/h) 0 mm0 mm 22.3 °C 22.2 °C 21.7 °C 21 °C 7790 m 0 min 0 W/m² 1024.1 hPa
07:36 18.3 °C 18 °C 98 % 8 km/h (15 km/h) 0 mm0 mm 22.3 °C 22.2 °C 21.7 °C 21 °C 7440 m 0 min 0 W/m² 1023.9 hPa
07:30 18.3 °C 18 °C 98 % 8 km/h (11 km/h) 0 mm0 mm 22.4 °C 22.2 °C 21.7 °C 21 °C 7580 m 1023.9 hPa
07:24 18.3 °C 18 °C 98 % 8 km/h (11 km/h) 0 mm0 mm 22.4 °C 22.1 °C 21.7 °C 21 °C 4810 m 0 min 0 W/m² 1023.7 hPa
07:18 18.3 °C 18 °C 98 % 8 km/h (14 km/h) 0 mm0 mm 22.4 °C 22.2 °C 21.7 °C 21 °C 3760 m 0 min 0 W/m² 1023.7 hPa
07:12 18.2 °C 17.9 °C 98 % 9 km/h (14 km/h) 0 mm0 mm 22.4 °C 22.2 °C 21.7 °C 21 °C 5000 m 0 min 0 W/m² 1023.7 hPa
07:06 18.2 °C 17.9 °C 98 % 10 km/h (15 km/h) 0 mm0 mm 22.3 °C 22.2 °C 21.7 °C 21 °C 4610 m 0 min 0 W/m² 1023.6 hPa
07:00 18.2 °C 17.9 °C 98 % 12 km/h (15 km/h) 0 mm0.2 mm 22.4 °C 22.2 °C 21.7 °C 21 °C 3590 m 0 min 0 W/m² 1023.5 hPa 8 Octas
06:54 18.2 °C 17.9 °C 98 % 13 km/h (17 km/h) 0 mm0 mm 22.4 °C 22.2 °C 21.7 °C 21 °C 2330 m 0 min 0 W/m² 1023.6 hPa
06:48 18.2 °C 17.9 °C 98 % 14 km/h (17 km/h) 0 mm0 mm 22.4 °C 22.2 °C 21.7 °C 21 °C 2090 m 0 min 0 W/m² 1023.7 hPa
06:42 18.1 °C 17.8 °C 98 % 14 km/h (19 km/h) 0.2 mm0 mm 22.4 °C 22.2 °C 21.7 °C 21 °C 1710 m 0 min 0 W/m² 1023.7 hPa
06:36 18.1 °C 17.8 °C 98 % 14 km/h (19 km/h) 0 mm0 mm 22.4 °C 22.2 °C 21.7 °C 21 °C 1430 m 0 min 0 W/m² 1023.6 hPa
06:30 18 °C 17.7 °C 98 % 14 km/h (17 km/h) 0 mm0 mm 22.4 °C 22.2 °C 21.7 °C 21 °C 950 m 0 min 0 W/m² 1023.5 hPa
06:24 18 °C 17.7 °C 98 % 13 km/h (18 km/h) 0 mm0 mm 22.4 °C 22.2 °C 21.7 °C 21 °C 1290 m 0 min 0 W/m² 1023.5 hPa
06:18 17.9 °C 17.6 °C 98 % 11 km/h (15 km/h) 0 mm0 mm 22.4 °C 22.2 °C 21.7 °C 21 °C 5350 m 0 min 0 W/m² 1023.4 hPa
06:12 17.7 °C 17.4 °C 98 % 7 km/h (15 km/h) 0 mm0 mm 22.4 °C 22.2 °C 21.7 °C 21 °C 19410 m 0 min 0 W/m² 1023.4 hPa
06:06 17.3 °C 16.8 °C 97 % 5 km/h (8 km/h) 0 mm0 mm 22.5 °C 22.2 °C 21.7 °C 21 °C 31400 m 0 min 0 W/m² 1023.4 hPa
06:00 17.1 °C 16.5 °C 96 % 4 km/h (6 km/h) 0 mm0 mm 22.5 °C 22.2 °C 21.7 °C 21 °C 39320 m 0 min 0 W/m² 1023.4 hPa
05:54 17 °C 16.4 °C 96 % 5 km/h (7 km/h) 0 mm0 mm 22.5 °C 22.2 °C 21.7 °C 21 °C 18400 m 0 min 0 W/m² 1023.5 hPa
05:48 17 °C 16.4 °C 96 % 6 km/h (7 km/h) 0 mm0 mm 22.5 °C 22.2 °C 21.7 °C 21 °C 7200 m 0 min 0 W/m² 1023.4 hPa
05:42 17.1 °C 16.5 °C 96 % 6 km/h (8 km/h) 0 mm0 mm 22.5 °C 22.2 °C 21.7 °C 21 °C 10310 m 0 min 0 W/m² 1023.5 hPa
05:36 17.2 °C 16.6 °C 96 % 6 km/h (8 km/h) 0 mm0 mm 22.5 °C 22.2 °C 21.7 °C 21 °C 22300 m 0 min 0 W/m² 1023.6 hPa
05:30 17.3 °C 16.7 °C 96 % 6 km/h (7 km/h) 0 mm0 mm 22.5 °C 22.2 °C 21.7 °C 21 °C 22980 m 0 min 0 W/m² 1023.5 hPa
05:24 17.3 °C 16.5 °C 95 % 6 km/h (7 km/h) 0 mm0 mm 22.5 °C 22.2 °C 21.7 °C 21 °C 31700 m 0 min 0 W/m² 1023.5 hPa
05:18 17.2 °C 16.4 °C 95 % 5 km/h (7 km/h) 0 mm0 mm 22.5 °C 22.2 °C 21.7 °C 21 °C 28200 m 0 min 0 W/m² 1023.4 hPa
05:12 17.2 °C 16.4 °C 95 % 6 km/h (6 km/h) 0 mm0 mm 22.6 °C 22.2 °C 21.7 °C 20.9 °C 26500 m 0 min 0 W/m² 1023.5 hPa
05:06 17.2 °C 16.4 °C 95 % 6 km/h (8 km/h) 0 mm0 mm 22.6 °C 22.2 °C 21.7 °C 21 °C 30890 m 0 min 0 W/m² 1023.4 hPa
05:00 17.3 °C 16.3 °C 94 % 7 km/h (8 km/h) 0 mm0 mm 22.6 °C 22.4 °C 21.8 °C 21.2 °C 25000 m 0 min 0 W/m² 1023.3 hPa
04:54 17.4 °C 16.4 °C 94 % 7 km/h (8 km/h) 0 mm0 mm 22.6 °C 22.2 °C 21.7 °C 21 °C 23930 m 0 min 0 W/m² 1023.2 hPa
04:48 17.5 °C 16.5 °C 94 % 7 km/h (8 km/h) 0 mm0 mm 22.6 °C 22.2 °C 21.7 °C 21 °C 27440 m 0 min 0 W/m² 1023.2 hPa
04:42 17.6 °C 16.6 °C 94 % 7 km/h (8 km/h) 0 mm0 mm 22.6 °C 22.2 °C 21.7 °C 21 °C 31700 m 0 min 0 W/m² 1023.2 hPa
04:36 17.7 °C 16.7 °C 94 % 7 km/h (9 km/h) 0 mm0 mm 22.6 °C 22.2 °C 21.7 °C 21 °C 30520 m 0 min 0 W/m² 1023.1 hPa
04:30 17.8 °C 16.8 °C 94 % 8 km/h (9 km/h) 0 mm0 mm 22.6 °C 22.2 °C 21.7 °C 21 °C 33160 m 0 min 0 W/m² 1023.1 hPa
04:24 17.9 °C 16.9 °C 94 % 7 km/h (9 km/h) 0 mm0 mm 22.6 °C 22.2 °C 21.7 °C 21 °C 39030 m 0 min 0 W/m² 1023 hPa
04:18 18.1 °C 16.9 °C 93 % 5 km/h (7 km/h) 0 mm0 mm 22.6 °C 22.2 °C 21.7 °C 21 °C 41910 m 0 min 0 W/m² 1023 hPa
04:12 18.1 °C 16.8 °C 92 % 5 km/h (7 km/h) 0 mm0 mm 22.6 °C 22.2 °C 21.7 °C 21 °C 53880 m 0 min 0 W/m² 1022.8 hPa
04:06 18.1 °C 16.8 °C 92 % 6 km/h (8 km/h) 0 mm0 mm 22.7 °C 22.2 °C 21.6 °C 21 °C 57710 m 0 min 0 W/m² 1022.8 hPa
04:00 18.2 °C 16.9 °C 92 % 4 km/h (7 km/h) 0 mm0 mm 22.6 °C 22.2 °C 21.6 °C 21 °C 42150 m 0 min 0 W/m² 1022.8 hPa
03:54 18.2 °C 16.9 °C 92 % 4 km/h (5 km/h) 0 mm0 mm 22.7 °C 22.2 °C 21.7 °C 21 °C 30170 m 0 min 0 W/m² 1022.8 hPa
03:48 18.2 °C 16.9 °C 92 % 5 km/h (8 km/h) 0 mm0 mm 22.7 °C 22.2 °C 21.7 °C 21 °C 29860 m 0 min 0 W/m² 1022.8 hPa
03:42 18.2 °C 16.9 °C 92 % 6 km/h (8 km/h) 0 mm0 mm 22.7 °C 22.2 °C 21.6 °C 21 °C 30550 m 0 min 0 W/m² 1022.8 hPa
03:36 18.3 °C 16.8 °C 91 % 6 km/h (7 km/h) 0 mm0 mm 22.7 °C 22.2 °C 21.6 °C 21 °C 37230 m 0 min 0 W/m² 1022.7 hPa
03:30 18.3 °C 16.8 °C 91 % 5 km/h (7 km/h) 0 mm0 mm 22.7 °C 22.2 °C 21.6 °C 21 °C 45730 m 0 min 0 W/m² 1022.7 hPa
03:24 18.3 °C 16.8 °C 91 % 4 km/h (6 km/h) 0 mm0 mm 22.7 °C 22.2 °C 21.6 °C 21 °C 58000 m 0 min 0 W/m² 1022.7 hPa
03:18 18.3 °C 16.8 °C 91 % 4 km/h (5 km/h) 0 mm0 mm 22.7 °C 22.2 °C 21.6 °C 21 °C 59890 m 0 min 0 W/m² 1022.6 hPa
03:12 18.4 °C 16.6 °C 89 % 4 km/h (5 km/h) 0 mm0 mm 22.7 °C 22.2 °C 21.6 °C 21 °C 60000 m 0 min 0 W/m² 1022.6 hPa
03:06 18.6 °C 16.9 °C 90 % 4 km/h (6 km/h) 0 mm0 mm 22.7 °C 22.2 °C 21.6 °C 21 °C 54990 m 0 min 0 W/m² 1022.6 hPa
03:00 18.6 °C 17.1 °C 91 % 4 km/h (6 km/h) 0 mm0 mm 22.7 °C 22.2 °C 21.6 °C 21 °C 49130 m 0 min 0 W/m² 1022.6 hPa
02:54 18.5 °C 17 °C 91 % 4 km/h (6 km/h) 0 mm0 mm 22.7 °C 22.2 °C 21.6 °C 21 °C 47850 m 0 min 0 W/m² 1022.5 hPa
02:48 18.5 °C 17 °C 91 % 5 km/h (8 km/h) 0 mm0 mm 22.7 °C 22.2 °C 21.6 °C 21 °C 50310 m 0 min 0 W/m² 1022.5 hPa
02:42 18.6 °C 16.9 °C 90 % 6 km/h (8 km/h) 0 mm0 mm 22.7 °C 22.2 °C 21.6 °C 21 °C 49730 m 0 min 0 W/m² 1022.6 hPa
02:36 18.6 °C 17.1 °C 91 % 6 km/h (8 km/h) 0 mm0 mm 22.8 °C 22.2 °C 21.6 °C 21 °C 48100 m 0 min 0 W/m² 1022.6 hPa
02:30 18.6 °C 16.9 °C 90 % 7 km/h (8 km/h) 0 mm0 mm 22.7 °C 22.2 °C 21.6 °C 21 °C 46490 m 0 min 0 W/m² 1022.6 hPa
02:24 18.7 °C 17.2 °C 91 % 6 km/h (8 km/h) 0 mm0 mm 22.7 °C 22.2 °C 21.6 °C 21 °C 41910 m 0 min 0 W/m² 1022.5 hPa
02:18 18.7 °C 17 °C 90 % 6 km/h (9 km/h) 0 mm0 mm 22.7 °C 22.2 °C 21.6 °C 21 °C 40140 m 0 min 0 W/m² 1022.5 hPa
02:12 18.8 °C 17.1 °C 90 % 7 km/h (9 km/h) 0 mm0 mm 22.7 °C 22.2 °C 21.6 °C 21 °C 39460 m 0 min 0 W/m² 1022.5 hPa
02:06 18.8 °C 17.1 °C 90 % 9 km/h (11 km/h) 0 mm0 mm 22.8 °C 22.1 °C 21.6 °C 21 °C 40290 m 0 min 0 W/m² 1022.5 hPa
02:00 18.9 °C 17.2 °C 90 % 9 km/h (11 km/h) 0 mm0 mm 22.8 °C 22.1 °C 21.6 °C 21 °C 39740 m 0 min 0 W/m² 1022.5 hPa
01:54 18.8 °C 17.1 °C 90 % 7 km/h (11 km/h) 0 mm0 mm 22.8 °C 22.2 °C 21.6 °C 21 °C 45480 m 0 min 0 W/m² 1022.5 hPa
01:48 18.8 °C 17.1 °C 90 % 6 km/h (9 km/h) 0 mm0 mm 22.8 °C 22.2 °C 21.6 °C 21 °C 49880 m 0 min 0 W/m² 1022.3 hPa
01:42 18.8 °C 17.3 °C 91 % 8 km/h (10 km/h) 0 mm0 mm 22.8 °C 22.1 °C 21.6 °C 21 °C 44860 m 0 min 0 W/m² 1022.2 hPa
01:36 18.7 °C 17.2 °C 91 % 9 km/h (11 km/h) 0 mm0 mm 22.9 °C 22.1 °C 21.6 °C 21 °C 39640 m 0 min 0 W/m² 1022.2 hPa
01:30 18.6 °C 17.1 °C 91 % 8 km/h (10 km/h) 0 mm0 mm 22.8 °C 22.1 °C 21.6 °C 21 °C 37970 m 0 min 0 W/m² 1022.3 hPa
01:24 18.6 °C 17.1 °C 91 % 8 km/h (9 km/h) 0 mm0 mm 22.8 °C 22.1 °C 21.6 °C 21 °C 39450 m 0 min 0 W/m² 1022.3 hPa
01:18 18.5 °C 17 °C 91 % 6 km/h (8 km/h) 0 mm0 mm 22.8 °C 22.1 °C 21.6 °C 21 °C 41750 m 0 min 0 W/m² 1022.3 hPa
01:12 18.6 °C 17.1 °C 91 % 7 km/h (8 km/h) 0 mm0 mm 22.8 °C 22.1 °C 21.6 °C 21 °C 46730 m 0 min 0 W/m² 1022.2 hPa
01:06 18.6 °C 17.1 °C 91 % 7 km/h (8 km/h) 0 mm0 mm 22.8 °C 22.1 °C 21.6 °C 21 °C 49450 m 0 min 0 W/m² 1022.2 hPa
01:00 18.6 °C 16.9 °C 90 % 6 km/h (7 km/h) 0 mm0 mm 22.8 °C 22.1 °C 21.6 °C 21 °C 53870 m 0 min 0 W/m² 1022.2 hPa
00:54 18.6 °C 16.9 °C 90 % 6 km/h (9 km/h) 0 mm0 mm 22.8 °C 22 °C 21.5 °C 20.9 °C 58520 m 0 min 0 W/m² 1022.2 hPa
00:48 18.6 °C 16.7 °C 89 % 7 km/h (10 km/h) 0 mm0 mm 22.8 °C 22 °C 21.5 °C 20.9 °C 59270 m 0 min 0 W/m² 1022.2 hPa
00:42 18.6 °C 16.4 °C 87 % 8 km/h (10 km/h) 0 mm0 mm 22.8 °C 22.1 °C 21.6 °C 21 °C 59630 m 0 min 0 W/m² 1022.3 hPa
00:36 18.7 °C 16.3 °C 86 % 9 km/h (10 km/h) 0 mm0 mm 22.8 °C 22.1 °C 21.6 °C 21 °C 59490 m 0 min 0 W/m² 1022.4 hPa
00:30 18.9 °C 16.5 °C 86 % 9 km/h (10 km/h) 0 mm0 mm 22.8 °C 22.1 °C 21.5 °C 21 °C 59760 m 0 min 0 W/m² 1022.4 hPa
00:24 18.9 °C 16.3 °C 85 % 10 km/h (11 km/h) 0 mm0 mm 22.8 °C 22.1 °C 21.6 °C 21 °C 60000 m 0 min 0 W/m² 1022.2 hPa
00:18 19 °C 16.4 °C 85 % 10 km/h (11 km/h) 0 mm0 mm 22.8 °C 22.1 °C 21.6 °C 21 °C 60000 m 0 min 0 W/m² 1022.1 hPa
00:12 19.1 °C 16.3 °C 84 % 10 km/h (11 km/h) 0 mm0 mm 22.3 °C 22.1 °C 21.6 °C 21 °C 60000 m 0 min 0 W/m² 1022.1 hPa
00:06 19.1 °C 16.1 °C 83 % 11 km/h (12 km/h) 0 mm0 mm 22.8 °C 22.1 °C 21.6 °C 21 °C 60000 m 0 min 0 W/m² 1022 hPa
00:00 19.3 °C 16 °C 81 % 11 km/h (12 km/h) 0 mm0 mm 22.8 °C 22 °C 21.6 °C 21 °C 60000 m 0 min 0 W/m² 1022 hPa

Données via Météo-France

Relevés météo à Cognac

Cette page rassemble les observations de la station de Cognac : température, humidité, vent, précipitations et pression atmosphérique. Les graphiques facilitent le suivi de la journée, tandis que le tableau donne accès aux mesures horaires et infra-horaires disponibles.

Pour replacer ces mesures dans leur contexte, consultez la climatologie de Cognac ainsi que ses normales et records. Retrouvez aussi la carte des observations météo en temps réel.